createdAt,value
2022-10-01T00:00:29.275Z,68.12
2022-10-01T00:02:55.768Z,68.40
2022-10-01T00:05:22.283Z,68.06
2022-10-01T00:07:48.731Z,68.31
2022-10-01T00:10:16.059Z,68.23
2022-10-01T00:12:49.035Z,68.52
2022-10-01T00:15:16.878Z,68.53
2022-10-01T00:17:43.626Z,71.15
2022-10-01T00:20:14.732Z,70.77
2022-10-01T00:22:41.481Z,71.54
2022-10-01T00:25:07.947Z,71.90
2022-10-01T00:27:35.876Z,74.55
2022-10-01T00:30:04.685Z,74.53
2022-10-01T00:32:32.256Z,74.86
2022-10-01T00:35:01.049Z,76.18
2022-10-01T00:37:27.480Z,77.30
2022-10-01T00:39:53.984Z,77.87
2022-10-01T00:42:23.544Z,77.71
2022-10-01T00:44:50.729Z,79.12
2022-10-01T00:47:29.007Z,79.31
2022-10-01T00:50:01.911Z,79.88
2022-10-01T00:52:31.786Z,79.97
2022-10-01T00:55:04.967Z,80.48
2022-10-01T00:57:32.664Z,80.90
2022-10-01T01:00:04.500Z,81.78
2022-10-01T01:02:31.005Z,82.38
2022-10-01T01:04:57.886Z,83.27
2022-10-01T01:07:24.391Z,82.89
2022-10-01T01:09:53.683Z,83.61
2022-10-01T01:12:38.406Z,84.19
2022-10-01T01:15:43.801Z,82.94
2022-10-01T01:18:22.930Z,83.76
2022-10-01T01:21:22.908Z,83.98
2022-10-01T01:24:16.513Z,84.81
2022-10-01T01:27:10.545Z,85.33
2022-10-01T01:29:55.292Z,85.37
2022-10-01T01:32:35.175Z,85.44
2022-10-01T01:35:06.756Z,85.74
2022-10-01T01:37:38.384Z,85.73
2022-10-01T01:40:12.148Z,86.19
2022-10-01T01:42:41.961Z,86.57
2022-10-01T01:45:13.573Z,86.18
2022-10-01T01:47:42.182Z,86.79
2022-10-01T01:50:11.440Z,87.28
2022-10-01T01:52:38.332Z,86.68
2022-10-01T01:55:08.403Z,87.93
2022-10-01T01:57:43.452Z,87.29
2022-10-01T02:00:11.809Z,87.10
2022-10-01T02:02:40.243Z,88.03
2022-10-01T02:05:14.163Z,87.65
2022-10-01T02:08:16.019Z,87.57
2022-10-01T02:11:03.852Z,87.81
2022-10-01T02:13:43.706Z,87.41
2022-10-01T02:16:42.226Z,87.91
2022-10-01T02:19:11.960Z,88.60
2022-10-01T02:21:57.915Z,88.42
2022-10-01T02:24:33.472Z,88.56
2022-10-01T02:27:04.272Z,88.79
2022-10-01T02:29:31.156Z,88.94
2022-10-01T02:31:57.566Z,88.55
2022-10-01T02:34:28.863Z,89.07
2022-10-01T02:36:57.877Z,89.18
2022-10-01T02:39:27.540Z,89.09
2022-10-01T02:41:55.648Z,89.78
2022-10-01T02:44:30.202Z,89.90
2022-10-01T02:47:02.655Z,90.14
2022-10-01T02:49:31.042Z,90.35
2022-10-01T02:52:15.011Z,90.41
2022-10-01T02:55:00.544Z,89.63
2022-10-01T02:57:27.656Z,90.24
2022-10-01T02:59:59.819Z,90.14
2022-10-01T03:02:28.517Z,90.08
2022-10-01T03:04:57.426Z,90.58
2022-10-01T03:07:26.088Z,90.28
2022-10-01T03:09:52.772Z,89.98
2022-10-01T03:12:19.233Z,89.86
2022-10-01T03:14:46.103Z,90.19
2022-10-01T03:17:13.875Z,90.38
2022-10-01T03:19:40.601Z,90.72
2022-10-01T03:22:12.868Z,90.27
2022-10-01T03:24:39.255Z,90.47
2022-10-01T03:27:05.620Z,90.36
2022-10-01T03:29:32.044Z,90.13
2022-10-01T03:31:58.382Z,91.26
2022-10-01T03:34:24.892Z,90.93
2022-10-01T03:36:54.121Z,91.28
2022-10-01T03:39:20.578Z,91.47
2022-10-01T03:41:46.965Z,91.58
2022-10-01T03:44:13.588Z,91.37
2022-10-01T03:46:39.966Z,91.71
2022-10-01T03:49:06.331Z,91.67
2022-10-01T03:51:33.495Z,91.96
2022-10-01T03:54:00.167Z,92.07
2022-10-01T03:56:26.651Z,91.39
2022-10-01T03:58:53.052Z,91.45
2022-10-01T04:01:19.511Z,91.64
2022-10-01T04:03:46.289Z,91.08
2022-10-01T04:06:13.248Z,91.61
2022-10-01T04:08:39.815Z,91.68
2022-10-01T04:11:07.035Z,91.16
2022-10-01T04:13:34.738Z,91.88
2022-10-01T04:16:05.224Z,91.84
2022-10-01T04:18:32.128Z,91.31
2022-10-01T04:20:58.484Z,91.57
2022-10-01T04:23:26.301Z,91.35
2022-10-01T04:25:52.930Z,91.75
2022-10-01T04:28:19.645Z,91.71
2022-10-01T04:30:46.575Z,91.50
2022-10-01T04:33:15.167Z,91.31
2022-10-01T04:35:43.262Z,91.37
2022-10-01T04:38:17.422Z,91.56
2022-10-01T04:40:43.848Z,90.20
2022-10-01T04:43:11.686Z,90.85
2022-10-01T04:45:38.230Z,90.85
2022-10-01T04:48:05.351Z,90.91
2022-10-01T04:50:32.119Z,91.02
2022-10-01T04:52:58.502Z,91.04
2022-10-01T04:55:24.942Z,91.03
2022-10-01T04:57:51.309Z,91.15
2022-10-01T05:00:21.656Z,91.15
2022-10-01T05:02:49.495Z,91.43
2022-10-01T05:05:17.486Z,91.16
2022-10-01T05:07:44.438Z,91.32
2022-10-01T05:10:14.054Z,91.17
2022-10-01T05:12:41.372Z,91.57
2022-10-01T05:15:08.580Z,91.60
2022-10-01T05:17:35.293Z,91.59
2022-10-01T05:20:03.698Z,91.87
2022-10-01T05:22:30.148Z,92.48
2022-10-01T05:24:59.053Z,92.49
2022-10-01T05:27:28.384Z,92.27
2022-10-01T05:29:54.827Z,92.20
2022-10-01T05:32:21.135Z,92.29
2022-10-01T05:34:52.678Z,92.56
2022-10-01T05:37:19.973Z,92.74
2022-10-01T05:39:46.522Z,92.27
2022-10-01T05:42:12.914Z,92.65
2022-10-01T05:44:40.755Z,92.60
2022-10-01T05:47:07.554Z,92.13
2022-10-01T05:49:34.017Z,91.58
2022-10-01T05:52:00.912Z,91.96
2022-10-01T05:54:29.457Z,91.58
2022-10-01T05:56:57.005Z,91.75
2022-10-01T05:59:25.523Z,91.70
2022-10-01T06:01:53.841Z,91.37
2022-10-01T06:04:20.355Z,91.33
2022-10-01T06:06:46.880Z,92.10
2022-10-01T06:09:13.716Z,92.02
2022-10-01T06:11:40.130Z,91.96
2022-10-01T06:14:07.178Z,92.34
2022-10-01T06:16:33.652Z,92.16
2022-10-01T06:19:00.028Z,92.42
2022-10-01T06:21:27.481Z,92.20
2022-10-01T06:23:54.334Z,92.38
2022-10-01T06:26:21.249Z,92.13
2022-10-01T06:28:51.607Z,92.34
2022-10-01T06:31:19.230Z,92.27
2022-10-01T06:33:45.600Z,92.03
2022-10-01T06:36:12.002Z,92.51
2022-10-01T06:38:38.419Z,92.87
2022-10-01T06:41:05.265Z,92.48
2022-10-01T06:43:33.121Z,92.19
2022-10-01T06:46:04.732Z,92.45
2022-10-01T06:48:32.443Z,92.09
2022-10-01T06:50:59.536Z,92.75
2022-10-01T06:53:28.204Z,91.75
2022-10-01T06:55:54.963Z,91.48
2022-10-01T06:58:24.332Z,91.21
2022-10-01T07:00:50.841Z,91.13
2022-10-01T07:03:21.727Z,90.68
2022-10-01T07:05:49.637Z,91.14
2022-10-01T07:08:16.611Z,91.39
2022-10-01T07:10:44.252Z,91.00
2022-10-01T07:13:13.287Z,90.97
2022-10-01T07:15:40.349Z,90.82
2022-10-01T07:18:09.385Z,91.04
2022-10-01T07:20:39.539Z,91.06
2022-10-01T07:23:10.056Z,90.94
2022-10-01T07:25:38.793Z,91.63
2022-10-01T07:28:07.556Z,91.15
2022-10-01T07:30:34.516Z,90.67
2022-10-01T07:33:00.857Z,90.83
2022-10-01T07:35:28.434Z,90.04
2022-10-01T07:37:55.221Z,90.51
2022-10-01T07:40:22.418Z,91.06
2022-10-01T07:42:56.932Z,90.31
2022-10-01T07:45:24.379Z,90.47
2022-10-01T07:48:00.486Z,90.56
2022-10-01T07:50:29.619Z,90.58
2022-10-01T07:52:58.149Z,90.74
2022-10-01T07:55:26.901Z,91.43
2022-10-01T07:57:59.507Z,90.90
2022-10-01T08:00:27.035Z,91.45
2022-10-01T08:02:56.007Z,90.74
2022-10-01T08:05:29.470Z,91.00
2022-10-01T08:08:01.131Z,91.03
2022-10-01T08:10:28.257Z,89.84
2022-10-01T08:13:04.716Z,89.92
2022-10-01T08:15:31.050Z,90.25
2022-10-01T08:18:01.122Z,89.75
2022-10-01T08:20:28.374Z,90.15
2022-10-01T08:22:54.812Z,90.47
2022-10-01T08:25:21.178Z,89.56
2022-10-01T08:27:48.301Z,89.62
2022-10-01T08:30:14.790Z,89.43
2022-10-01T08:32:41.157Z,89.35
2022-10-01T08:35:07.935Z,89.25
2022-10-01T08:37:34.775Z,89.71
2022-10-01T08:40:01.414Z,89.71
2022-10-01T08:43:06.230Z,89.02
2022-10-01T08:45:51.447Z,89.24
2022-10-01T08:48:23.918Z,89.38
2022-10-01T08:50:57.470Z,89.54
2022-10-01T08:53:37.343Z,89.26
2022-10-01T08:56:05.630Z,89.40
2022-10-01T08:58:45.146Z,89.50
2022-10-01T09:01:11.948Z,89.32
2022-10-01T09:03:53.365Z,89.36
2022-10-01T09:06:23.112Z,89.66
2022-10-01T09:08:49.429Z,89.12
2022-10-01T09:11:43.051Z,89.12
2022-10-01T09:14:15.425Z,89.50
2022-10-01T09:17:03.556Z,90.05
2022-10-01T09:19:47.758Z,89.15
2022-10-01T09:23:02.243Z,89.63
2022-10-01T09:25:29.416Z,89.44
2022-10-01T09:28:11.399Z,90.03
2022-10-01T09:30:54.896Z,90.39
2022-10-01T09:33:24.808Z,90.25
2022-10-01T09:36:04.713Z,90.69
2022-10-01T09:38:45.921Z,91.14
2022-10-01T09:41:12.842Z,91.44
2022-10-01T09:43:42.240Z,91.28
2022-10-01T09:46:17.087Z,90.97
2022-10-01T09:49:02.294Z,90.91
2022-10-01T09:51:41.391Z,90.64
2022-10-01T09:54:45.716Z,91.16
2022-10-01T09:57:20.732Z,90.37
2022-10-01T10:00:10.490Z,90.20
2022-10-01T10:02:49.673Z,89.65
2022-10-01T10:05:19.247Z,89.85
2022-10-01T10:08:10.418Z,89.34
2022-10-01T10:10:39.578Z,88.69
2022-10-01T10:13:24.374Z,86.86
2022-10-01T10:15:57.453Z,86.92
2022-10-01T10:18:38.376Z,87.00
2022-10-01T10:21:11.559Z,87.87
2022-10-01T10:23:51.011Z,85.82
2022-10-01T10:26:21.310Z,82.45
2022-10-01T10:28:48.090Z,81.21
2022-10-01T10:31:17.774Z,80.97
2022-10-01T10:33:51.198Z,79.05
2022-10-01T10:36:19.635Z,74.71
2022-10-01T10:38:53.692Z,72.35
2022-10-01T10:41:26.197Z,67.81
2022-10-01T10:43:57.676Z,68.14
2022-10-01T10:46:32.231Z,66.79
2022-10-01T10:49:05.737Z,67.08
2022-10-01T10:51:51.252Z,67.85
2022-10-01T10:54:19.622Z,67.23
2022-10-01T10:57:02.500Z,68.74
2022-10-01T10:59:31.884Z,72.48
2022-10-01T11:02:04.657Z,72.79
2022-10-01T11:04:42.996Z,72.45
2022-10-01T11:07:11.052Z,68.50
2022-10-01T11:10:02.537Z,68.89
2022-10-01T11:12:56.600Z,69.30
2022-10-01T11:15:41.916Z,66.64
2022-10-01T11:18:17.636Z,64.21
2022-10-01T11:21:03.796Z,65.10
2022-10-01T11:23:50.694Z,67.46
2022-10-01T11:26:46.120Z,70.68
2022-10-01T11:29:47.230Z,72.15
2022-10-01T11:32:34.020Z,72.57
2022-10-01T11:35:19.498Z,74.17
2022-10-01T11:38:11.684Z,67.16
2022-10-01T11:40:40.876Z,64.30
2022-10-01T11:43:21.206Z,62.36
2022-10-01T11:45:55.706Z,57.88
2022-10-01T11:48:29.752Z,57.40
2022-10-01T11:51:05.435Z,54.45
2022-10-01T11:53:40.759Z,56.02
2022-10-01T11:56:40.232Z,54.76
2022-10-01T11:59:16.776Z,52.26
2022-10-01T12:01:52.197Z,55.83
2022-10-01T12:04:31.580Z,56.01
2022-10-01T12:07:01.811Z,52.08
2022-10-01T12:10:02.500Z,50.40
2022-10-01T12:12:35.830Z,52.77
2022-10-01T12:15:11.175Z,50.51
2022-10-01T12:17:51.430Z,51.32
2022-10-01T12:20:29.913Z,51.93
2022-10-01T12:22:59.768Z,49.77
2022-10-01T12:25:46.744Z,52.75
2022-10-01T12:28:19.529Z,56.00
2022-10-01T12:30:54.711Z,58.17
2022-10-01T12:33:32.364Z,60.65
2022-10-01T12:36:13.078Z,66.35
2022-10-01T12:39:14.904Z,69.27
2022-10-01T12:41:52.846Z,72.60
2022-10-01T12:44:57.169Z,74.15
2022-10-01T12:47:42.938Z,74.40
2022-10-01T12:50:21.784Z,74.72
2022-10-01T12:53:17.746Z,75.33
2022-10-01T12:55:55.525Z,72.88
2022-10-01T12:58:52.980Z,72.60
2022-10-01T13:01:38.716Z,76.36
2022-10-01T13:04:27.740Z,78.78
2022-10-01T13:07:07.930Z,77.22
2022-10-01T13:09:57.790Z,79.04
2022-10-01T13:12:36.833Z,79.17
2022-10-01T13:15:05.527Z,78.46
2022-10-01T13:17:46.153Z,79.19
2022-10-01T13:20:32.422Z,78.12
2022-10-01T13:23:18.585Z,76.99
2022-10-01T13:25:58.878Z,75.64
2022-10-01T13:28:54.334Z,74.56
2022-10-01T13:31:34.994Z,71.60
2022-10-01T13:34:02.671Z,68.55
2022-10-01T13:36:35.571Z,67.79
2022-10-01T13:39:02.203Z,66.09
2022-10-01T13:41:31.677Z,70.36
2022-10-01T13:44:18.411Z,72.67
2022-10-01T13:47:00.290Z,75.05
2022-10-01T13:49:32.279Z,75.01
2022-10-01T13:51:59.078Z,75.88
2022-10-01T13:54:47.380Z,76.22
2022-10-01T13:57:29.059Z,78.27
2022-10-01T14:00:11.599Z,79.37
2022-10-01T14:02:41.203Z,81.55
2022-10-01T14:05:30.870Z,80.93
2022-10-01T14:08:12.274Z,80.75
2022-10-01T14:11:16.676Z,80.79
2022-10-01T14:14:05.835Z,79.68
2022-10-01T14:16:42.746Z,81.19
2022-10-01T14:19:17.039Z,80.15
2022-10-01T14:21:58.922Z,78.47
2022-10-01T14:24:43.374Z,77.99
2022-10-01T14:27:09.780Z,79.84
2022-10-01T14:30:05.376Z,80.66
2022-10-01T14:32:51.013Z,81.07
2022-10-01T14:35:38.797Z,80.61
2022-10-01T14:38:13.154Z,81.93
2022-10-01T14:40:42.275Z,75.73
2022-10-01T14:43:19.277Z,76.04
2022-10-01T14:45:54.017Z,76.99
2022-10-01T14:48:20.780Z,75.71
2022-10-01T14:50:50.922Z,75.86
2022-10-01T14:53:19.622Z,76.56
2022-10-01T14:55:50.898Z,75.11
2022-10-01T14:58:27.097Z,73.84
2022-10-01T15:00:56.045Z,74.31
2022-10-01T15:03:22.533Z,73.94
2022-10-01T15:05:50.057Z,73.69
2022-10-01T15:08:19.562Z,72.74
2022-10-01T15:11:03.812Z,73.14
2022-10-01T15:13:35.371Z,71.89
2022-10-01T15:16:02.727Z,71.27
2022-10-01T15:18:30.483Z,71.59
2022-10-01T15:21:02.079Z,72.49
2022-10-01T15:23:30.719Z,71.74
2022-10-01T15:26:00.123Z,74.80
2022-10-01T15:28:31.783Z,72.75
2022-10-01T15:31:00.888Z,72.40
2022-10-01T15:33:29.729Z,73.88
2022-10-01T15:36:01.962Z,73.82
2022-10-01T15:38:33.730Z,72.04
2022-10-01T15:41:26.726Z,72.11
2022-10-01T15:43:49.776Z,71.74
2022-10-01T15:46:16.183Z,71.70
2022-10-01T15:48:42.726Z,73.34
2022-10-01T15:51:25.386Z,70.53
2022-10-01T15:53:53.097Z,72.20
2022-10-01T15:56:24.043Z,72.53
2022-10-01T15:58:54.531Z,74.30
2022-10-01T16:01:25.220Z,73.70
2022-10-01T16:04:20.778Z,73.63
2022-10-01T16:06:50.151Z,74.10
2022-10-01T16:09:21.939Z,72.89
2022-10-01T16:12:03.545Z,73.57
2022-10-01T16:14:43.660Z,72.76
2022-10-01T16:17:19.594Z,73.28
2022-10-01T16:19:47.136Z,74.14
2022-10-01T16:22:23.363Z,76.21
2022-10-01T16:24:54.589Z,75.94
2022-10-01T16:27:35.122Z,73.14
2022-10-01T16:30:11.858Z,73.34
2022-10-01T16:32:38.217Z,72.29
2022-10-01T16:35:15.286Z,73.24
2022-10-01T16:37:41.804Z,75.23
2022-10-01T16:40:11.713Z,74.62
2022-10-01T16:42:42.662Z,76.49
2022-10-01T16:45:18.039Z,77.06
2022-10-01T16:47:45.468Z,77.48
2022-10-01T16:50:16.224Z,77.01
2022-10-01T16:52:43.079Z,75.16
2022-10-01T16:55:25.312Z,76.92
2022-10-01T16:57:54.474Z,76.64
2022-10-01T17:00:22.630Z,76.45
2022-10-01T17:02:49.161Z,77.38
2022-10-01T17:05:15.525Z,77.46
2022-10-01T17:07:41.876Z,77.06
2022-10-01T17:10:08.291Z,78.34
2022-10-01T17:12:34.687Z,78.87
2022-10-01T17:15:01.023Z,79.48
2022-10-01T17:17:27.477Z,80.27
2022-10-01T17:19:53.922Z,81.45
2022-10-01T17:22:20.443Z,78.92
2022-10-01T17:24:46.761Z,78.74
2022-10-01T17:27:13.219Z,78.85
2022-10-01T17:29:39.718Z,79.06
2022-10-01T17:32:06.204Z,77.02
2022-10-01T17:34:35.631Z,80.06
2022-10-01T17:37:02.054Z,79.47
2022-10-01T17:39:28.589Z,80.44
2022-10-01T17:41:55.044Z,81.81
2022-10-01T17:44:21.925Z,83.02
2022-10-01T17:46:48.261Z,83.53
2022-10-01T17:49:15.279Z,84.02
2022-10-01T17:51:41.643Z,84.46
2022-10-01T17:54:08.049Z,85.50
2022-10-01T17:56:34.789Z,84.93
2022-10-01T17:59:01.431Z,84.96
2022-10-01T18:01:28.154Z,82.46
2022-10-01T18:04:00.444Z,82.24
2022-10-01T18:06:27.250Z,78.56
2022-10-01T18:08:56.316Z,78.45
2022-10-01T18:11:26.501Z,75.89
2022-10-01T18:13:53.154Z,76.84
2022-10-01T18:16:20.001Z,78.33
2022-10-01T18:21:33.053Z,75.44
2022-10-01T18:24:04.223Z,77.16
2022-10-01T18:26:31.229Z,75.48
2022-10-01T18:28:57.577Z,77.89
2022-10-01T18:31:27.070Z,78.89
2022-10-01T18:33:59.093Z,79.93
2022-10-01T18:37:00.881Z,82.24
2022-10-01T18:39:53.142Z,82.56
2022-10-01T18:42:27.210Z,82.82
2022-10-01T18:44:59.628Z,84.27
2022-10-01T18:47:32.065Z,84.92
2022-10-01T18:50:17.232Z,85.28
2022-10-01T18:53:21.246Z,85.14
2022-10-01T18:55:59.576Z,85.71
2022-10-01T18:58:41.209Z,85.61
2022-10-01T19:01:35.659Z,86.25
2022-10-01T19:04:32.553Z,86.12
2022-10-01T19:07:37.075Z,86.89
2022-10-01T19:10:15.411Z,86.68
2022-10-01T19:13:24.161Z,86.61
2022-10-01T19:16:15.471Z,86.74
2022-10-01T19:19:07.394Z,87.25
2022-10-01T19:21:45.184Z,87.30
2022-10-01T19:24:15.201Z,87.17
2022-10-01T19:26:47.078Z,87.39
2022-10-01T19:29:30.793Z,87.46
2022-10-01T19:32:02.230Z,87.38
2022-10-01T19:34:39.040Z,87.08
2022-10-01T19:37:12.809Z,87.05
2022-10-01T19:39:41.682Z,87.29
2022-10-01T19:42:15.112Z,87.49
2022-10-01T19:44:55.444Z,87.50
2022-10-01T19:47:27.528Z,87.17
2022-10-01T19:50:00.534Z,87.77
2022-10-01T19:52:30.484Z,87.97
2022-10-01T19:55:00.660Z,87.80
2022-10-01T19:57:34.737Z,88.09
2022-10-01T20:00:11.834Z,88.19
2022-10-01T20:02:49.151Z,88.38
2022-10-01T20:05:29.267Z,88.12
2022-10-01T20:08:05.802Z,88.00
2022-10-01T20:10:45.984Z,88.11
2022-10-01T20:13:28.162Z,88.33
2022-10-01T20:16:16.274Z,88.48
2022-10-01T20:18:59.918Z,87.90
2022-10-01T20:21:37.443Z,88.36
2022-10-01T20:24:18.944Z,88.45
2022-10-01T20:27:03.565Z,88.06
2022-10-01T20:29:58.222Z,88.24
2022-10-01T20:32:33.534Z,88.20
2022-10-01T20:35:24.744Z,88.75
2022-10-01T20:37:59.221Z,88.39
2022-10-01T20:40:40.537Z,88.57
2022-10-01T20:43:17.934Z,88.66
2022-10-01T20:45:48.357Z,88.31
2022-10-01T20:48:22.364Z,88.47
2022-10-01T20:50:54.026Z,88.20
2022-10-01T20:53:21.815Z,88.40
2022-10-01T20:56:01.923Z,88.40
2022-10-01T20:58:44.348Z,88.70
2022-10-01T21:01:23.804Z,88.81
2022-10-01T21:04:03.600Z,88.98
2022-10-01T21:06:37.286Z,88.26
2022-10-01T21:09:15.949Z,89.07
2022-10-01T21:11:53.682Z,88.90
2022-10-01T21:14:33.331Z,88.81
2022-10-01T21:17:23.487Z,88.86
2022-10-01T21:19:59.698Z,88.98
2022-10-01T21:22:36.123Z,88.52
2022-10-01T21:25:25.744Z,88.89
2022-10-01T21:28:23.206Z,89.38
2022-10-01T21:31:12.321Z,89.10
2022-10-01T21:33:52.168Z,89.00
2022-10-01T21:36:30.681Z,89.30
2022-10-01T21:39:09.563Z,89.79
2022-10-01T21:41:38.836Z,89.00
2022-10-01T21:44:30.102Z,88.96
2022-10-01T21:47:08.882Z,89.52
2022-10-01T21:49:57.425Z,89.03
2022-10-01T21:52:34.185Z,89.33
2022-10-01T21:55:22.015Z,89.99
2022-10-01T21:58:01.949Z,88.82
2022-10-01T22:00:29.582Z,89.11
2022-10-01T22:03:02.174Z,89.23
2022-10-01T22:05:34.013Z,89.06
2022-10-01T22:08:37.886Z,88.94
2022-10-01T22:11:12.044Z,89.61
2022-10-01T22:14:01.403Z,88.94
2022-10-01T22:16:38.497Z,89.55
2022-10-01T22:19:16.417Z,89.53
2022-10-01T22:21:46.055Z,89.13
2022-10-01T22:24:23.137Z,89.24
2022-10-01T22:26:54.478Z,89.44
2022-10-01T22:29:29.600Z,89.52
2022-10-01T22:31:58.845Z,89.09
2022-10-01T22:34:34.156Z,89.16
2022-10-01T22:37:06.175Z,88.88
2022-10-01T22:39:37.451Z,89.78
2022-10-01T22:42:12.137Z,89.71
2022-10-01T22:44:38.762Z,89.81
2022-10-01T22:47:44.104Z,89.45
2022-10-01T22:50:42.850Z,90.17
2022-10-01T22:53:37.586Z,90.38
2022-10-01T22:56:04.025Z,90.19
2022-10-01T22:58:57.033Z,90.26
2022-10-01T23:01:45.059Z,89.83
2022-10-01T23:04:28.717Z,89.86
2022-10-01T23:06:59.246Z,89.64
2022-10-01T23:09:35.309Z,90.13
2022-10-01T23:12:13.695Z,89.86
2022-10-01T23:15:13.578Z,89.67
2022-10-01T23:18:07.001Z,89.72
2022-10-01T23:20:42.397Z,89.77
2022-10-01T23:23:33.953Z,89.40
2022-10-01T23:26:12.379Z,89.74
2022-10-01T23:28:49.128Z,89.78
2022-10-01T23:31:31.329Z,89.39
2022-10-01T23:34:25.464Z,89.94
2022-10-01T23:37:36.242Z,89.84
2022-10-01T23:40:09.726Z,89.99
2022-10-01T23:42:38.935Z,89.66
2022-10-01T23:45:17.398Z,89.73
2022-10-01T23:47:55.026Z,89.68
2022-10-01T23:50:44.907Z,89.55
2022-10-01T23:53:17.755Z,89.89
2022-10-01T23:56:17.874Z,89.77
2022-10-01T23:59:00.300Z,90.21
